sensor_id;sensor_type;location;lat;lon;timestamp;P1;durP1;ratioP1;P2;durP2;ratioP2
21034;SDS011;10676;50.848;3.272;2023-04-03T00:02:07;76.97;;;41.10;;
21034;SDS011;10676;50.848;3.272;2023-04-03T00:04:32;71.47;;;41.10;;
21034;SDS011;10676;50.848;3.272;2023-04-03T00:06:58;76.23;;;39.57;;
21034;SDS011;10676;50.848;3.272;2023-04-03T00:09:24;69.10;;;38.60;;
21034;SDS011;10676;50.848;3.272;2023-04-03T00:11:50;69.40;;;39.83;;
21034;SDS011;10676;50.848;3.272;2023-04-03T00:14:15;65.37;;;37.20;;
21034;SDS011;10676;50.848;3.272;2023-04-03T00:16:41;69.57;;;37.43;;
21034;SDS011;10676;50.848;3.272;2023-04-03T00:19:07;71.73;;;36.80;;
21034;SDS011;10676;50.848;3.272;2023-04-03T00:21:33;68.10;;;36.20;;
21034;SDS011;10676;50.848;3.272;2023-04-03T00:23:59;65.93;;;36.70;;
21034;SDS011;10676;50.848;3.272;2023-04-03T00:26:24;67.13;;;36.63;;
21034;SDS011;10676;50.848;3.272;2023-04-03T00:28:50;70.73;;;37.47;;
21034;SDS011;10676;50.848;3.272;2023-04-03T00:31:17;70.20;;;38.40;;
21034;SDS011;10676;50.848;3.272;2023-04-03T00:33:43;69.57;;;38.33;;
21034;SDS011;10676;50.848;3.272;2023-04-03T00:36:09;64.90;;;39.10;;
21034;SDS011;10676;50.848;3.272;2023-04-03T00:38:35;71.73;;;39.00;;
21034;SDS011;10676;50.848;3.272;2023-04-03T00:41:01;74.63;;;40.10;;
21034;SDS011;10676;50.848;3.272;2023-04-03T00:43:27;68.50;;;38.70;;
21034;SDS011;10676;50.848;3.272;2023-04-03T00:45:54;70.37;;;38.00;;
21034;SDS011;10676;50.848;3.272;2023-04-03T00:48:22;63.67;;;35.90;;
21034;SDS011;10676;50.848;3.272;2023-04-03T00:50:52;62.63;;;36.93;;
21034;SDS011;10676;50.848;3.272;2023-04-03T00:53:21;71.50;;;38.13;;
21034;SDS011;10676;50.848;3.272;2023-04-03T00:55:50;63.57;;;36.13;;
21034;SDS011;10676;50.848;3.272;2023-04-03T00:58:18;67.23;;;37.00;;
21034;SDS011;10676;50.848;3.272;2023-04-03T01:00:46;64.47;;;36.00;;
21034;SDS011;10676;50.848;3.272;2023-04-03T01:03:21;63.13;;;36.20;;
21034;SDS011;10676;50.848;3.272;2023-04-03T01:05:47;70.57;;;37.60;;
21034;SDS011;10676;50.848;3.272;2023-04-03T01:08:12;62.67;;;34.47;;
21034;SDS011;10676;50.848;3.272;2023-04-03T01:10:38;67.27;;;38.03;;
21034;SDS011;10676;50.848;3.272;2023-04-03T01:13:17;66.67;;;36.27;;
21034;SDS011;10676;50.848;3.272;2023-04-03T01:15:54;62.53;;;35.30;;
21034;SDS011;10676;50.848;3.272;2023-04-03T01:18:21;66.27;;;34.23;;
21034;SDS011;10676;50.848;3.272;2023-04-03T01:21:05;56.73;;;33.60;;
21034;SDS011;10676;50.848;3.272;2023-04-03T01:23:43;59.97;;;33.83;;
21034;SDS011;10676;50.848;3.272;2023-04-03T01:26:32;67.03;;;35.40;;
21034;SDS011;10676;50.848;3.272;2023-04-03T01:28:59;60.70;;;34.13;;
21034;SDS011;10676;50.848;3.272;2023-04-03T01:31:27;58.73;;;33.83;;
21034;SDS011;10676;50.848;3.272;2023-04-03T01:33:56;58.47;;;36.00;;
21034;SDS011;10676;50.848;3.272;2023-04-03T01:36:29;64.50;;;35.43;;
21034;SDS011;10676;50.848;3.272;2023-04-03T01:38:56;59.10;;;33.57;;
21034;SDS011;10676;50.848;3.272;2023-04-03T01:41:24;55.77;;;35.50;;
21034;SDS011;10676;50.848;3.272;2023-04-03T01:43:50;53.50;;;34.73;;
21034;SDS011;10676;50.848;3.272;2023-04-03T01:46:16;54.43;;;35.40;;
21034;SDS011;10676;50.848;3.272;2023-04-03T01:48:43;54.93;;;35.63;;
21034;SDS011;10676;50.848;3.272;2023-04-03T01:51:09;55.20;;;33.57;;
21034;SDS011;10676;50.848;3.272;2023-04-03T01:53:35;51.53;;;33.13;;
21034;SDS011;10676;50.848;3.272;2023-04-03T01:56:01;52.90;;;34.10;;
21034;SDS011;10676;50.848;3.272;2023-04-03T01:58:26;50.30;;;31.90;;
21034;SDS011;10676;50.848;3.272;2023-04-03T02:00:52;50.30;;;31.90;;
21034;SDS011;10676;50.848;3.272;2023-04-03T02:03:19;49.57;;;30.13;;
21034;SDS011;10676;50.848;3.272;2023-04-03T02:05:45;55.47;;;31.60;;
21034;SDS011;10676;50.848;3.272;2023-04-03T02:08:11;49.57;;;31.40;;
21034;SDS011;10676;50.848;3.272;2023-04-03T02:10:36;48.50;;;29.27;;
21034;SDS011;10676;50.848;3.272;2023-04-03T02:13:02;40.73;;;28.43;;
21034;SDS011;10676;50.848;3.272;2023-04-03T02:15:28;44.10;;;27.00;;
21034;SDS011;10676;50.848;3.272;2023-04-03T02:17:54;50.50;;;29.37;;
21034;SDS011;10676;50.848;3.272;2023-04-03T02:20:20;44.57;;;28.07;;
21034;SDS011;10676;50.848;3.272;2023-04-03T02:22:46;45.90;;;30.20;;
21034;SDS011;10676;50.848;3.272;2023-04-03T02:25:12;48.00;;;29.13;;
21034;SDS011;10676;50.848;3.272;2023-04-03T02:27:38;42.50;;;27.97;;
21034;SDS011;10676;50.848;3.272;2023-04-03T02:30:04;43.70;;;27.90;;
21034;SDS011;10676;50.848;3.272;2023-04-03T02:32:30;44.47;;;27.70;;
21034;SDS011;10676;50.848;3.272;2023-04-03T02:34:56;42.53;;;27.60;;
21034;SDS011;10676;50.848;3.272;2023-04-03T02:37:22;39.83;;;27.47;;
21034;SDS011;10676;50.848;3.272;2023-04-03T02:39:47;43.20;;;26.77;;
21034;SDS011;10676;50.848;3.272;2023-04-03T02:42:13;50.63;;;30.27;;
21034;SDS011;10676;50.848;3.272;2023-04-03T02:44:39;51.13;;;33.00;;
21034;SDS011;10676;50.848;3.272;2023-04-03T02:47:05;51.33;;;32.33;;
21034;SDS011;10676;50.848;3.272;2023-04-03T02:49:30;55.07;;;34.10;;
21034;SDS011;10676;50.848;3.272;2023-04-03T02:51:56;50.03;;;32.63;;
21034;SDS011;10676;50.848;3.272;2023-04-03T02:54:22;56.13;;;32.47;;
21034;SDS011;10676;50.848;3.272;2023-04-03T02:56:48;52.83;;;32.57;;
21034;SDS011;10676;50.848;3.272;2023-04-03T02:59:14;49.77;;;31.47;;
21034;SDS011;10676;50.848;3.272;2023-04-03T03:01:40;52.70;;;32.47;;
21034;SDS011;10676;50.848;3.272;2023-04-03T03:04:06;48.13;;;31.87;;
21034;SDS011;10676;50.848;3.272;2023-04-03T03:06:31;46.57;;;31.23;;
21034;SDS011;10676;50.848;3.272;2023-04-03T03:08:57;47.83;;;29.23;;
21034;SDS011;10676;50.848;3.272;2023-04-03T03:11:23;48.70;;;29.33;;
21034;SDS011;10676;50.848;3.272;2023-04-03T03:13:48;46.80;;;29.00;;
21034;SDS011;10676;50.848;3.272;2023-04-03T03:16:14;42.03;;;28.43;;
21034;SDS011;10676;50.848;3.272;2023-04-03T03:18:40;45.77;;;28.53;;
21034;SDS011;10676;50.848;3.272;2023-04-03T03:21:06;46.67;;;29.40;;
21034;SDS011;10676;50.848;3.272;2023-04-03T03:23:32;48.10;;;27.67;;
21034;SDS011;10676;50.848;3.272;2023-04-03T03:25:58;44.13;;;28.77;;
21034;SDS011;10676;50.848;3.272;2023-04-03T03:28:26;42.00;;;28.47;;
21034;SDS011;10676;50.848;3.272;2023-04-03T03:30:52;41.50;;;27.47;;
21034;SDS011;10676;50.848;3.272;2023-04-03T03:33:18;45.63;;;27.70;;
21034;SDS011;10676;50.848;3.272;2023-04-03T03:35:44;44.00;;;27.70;;
21034;SDS011;10676;50.848;3.272;2023-04-03T03:38:10;44.87;;;27.33;;
21034;SDS011;10676;50.848;3.272;2023-04-03T03:40:36;46.03;;;27.67;;
21034;SDS011;10676;50.848;3.272;2023-04-03T03:43:02;46.60;;;28.50;;
21034;SDS011;10676;50.848;3.272;2023-04-03T03:45:28;50.23;;;28.20;;
21034;SDS011;10676;50.848;3.272;2023-04-03T03:47:54;44.80;;;28.53;;
21034;SDS011;10676;50.848;3.272;2023-04-03T03:50:19;47.13;;;28.63;;
21034;SDS011;10676;50.848;3.272;2023-04-03T03:52:45;43.50;;;29.07;;
21034;SDS011;10676;50.848;3.272;2023-04-03T03:55:11;48.73;;;29.30;;
21034;SDS011;10676;50.848;3.272;2023-04-03T03:57:37;45.40;;;28.63;;
21034;SDS011;10676;50.848;3.272;2023-04-03T04:00:03;50.83;;;29.73;;
21034;SDS011;10676;50.848;3.272;2023-04-03T04:02:29;43.30;;;28.83;;
21034;SDS011;10676;50.848;3.272;2023-04-03T04:04:55;43.13;;;28.60;;
21034;SDS011;10676;50.848;3.272;2023-04-03T04:07:21;45.70;;;28.70;;
21034;SDS011;10676;50.848;3.272;2023-04-03T04:09:47;45.07;;;29.73;;
21034;SDS011;10676;50.848;3.272;2023-04-03T04:12:13;46.70;;;30.07;;
21034;SDS011;10676;50.848;3.272;2023-04-03T04:14:38;49.07;;;30.33;;
21034;SDS011;10676;50.848;3.272;2023-04-03T04:17:04;54.33;;;30.87;;
21034;SDS011;10676;50.848;3.272;2023-04-03T04:19:30;55.57;;;33.30;;
21034;SDS011;10676;50.848;3.272;2023-04-03T04:21:55;60.83;;;35.10;;
21034;SDS011;10676;50.848;3.272;2023-04-03T04:24:21;56.03;;;36.13;;
21034;SDS011;10676;50.848;3.272;2023-04-03T04:26:50;61.20;;;37.13;;
21034;SDS011;10676;50.848;3.272;2023-04-03T04:29:15;59.03;;;39.17;;
21034;SDS011;10676;50.848;3.272;2023-04-03T04:31:41;62.90;;;39.20;;
21034;SDS011;10676;50.848;3.272;2023-04-03T04:34:07;65.97;;;39.07;;
21034;SDS011;10676;50.848;3.272;2023-04-03T04:36:33;61.87;;;37.93;;
21034;SDS011;10676;50.848;3.272;2023-04-03T04:38:58;63.00;;;36.83;;
21034;SDS011;10676;50.848;3.272;2023-04-03T04:41:24;62.77;;;36.10;;
21034;SDS011;10676;50.848;3.272;2023-04-03T04:43:51;60.37;;;35.30;;
21034;SDS011;10676;50.848;3.272;2023-04-03T04:46:17;54.87;;;34.23;;
21034;SDS011;10676;50.848;3.272;2023-04-03T04:48:43;55.33;;;32.67;;
21034;SDS011;10676;50.848;3.272;2023-04-03T04:51:09;49.90;;;32.30;;
21034;SDS011;10676;50.848;3.272;2023-04-03T04:53:36;55.67;;;33.23;;
21034;SDS011;10676;50.848;3.272;2023-04-03T04:56:02;50.23;;;32.80;;
21034;SDS011;10676;50.848;3.272;2023-04-03T04:58:28;57.17;;;32.47;;
21034;SDS011;10676;50.848;3.272;2023-04-03T05:01:01;55.30;;;32.37;;
21034;SDS011;10676;50.848;3.272;2023-04-03T05:03:31;52.60;;;31.67;;
21034;SDS011;10676;50.848;3.272;2023-04-03T05:05:58;47.30;;;31.70;;
21034;SDS011;10676;50.848;3.272;2023-04-03T05:08:23;48.63;;;32.13;;
21034;SDS011;10676;50.848;3.272;2023-04-03T05:10:49;49.17;;;30.53;;
21034;SDS011;10676;50.848;3.272;2023-04-03T05:13:15;44.80;;;30.50;;
21034;SDS011;10676;50.848;3.272;2023-04-03T05:15:41;45.97;;;30.00;;
21034;SDS011;10676;50.848;3.272;2023-04-03T05:18:07;43.57;;;29.77;;
21034;SDS011;10676;50.848;3.272;2023-04-03T05:20:33;44.67;;;28.10;;
21034;SDS011;10676;50.848;3.272;2023-04-03T05:22:58;47.67;;;28.60;;
21034;SDS011;10676;50.848;3.272;2023-04-03T05:25:24;40.43;;;27.80;;
21034;SDS011;10676;50.848;3.272;2023-04-03T05:27:50;41.17;;;27.77;;
21034;SDS011;10676;50.848;3.272;2023-04-03T05:30:16;36.63;;;26.57;;
21034;SDS011;10676;50.848;3.272;2023-04-03T05:32:42;39.03;;;27.70;;
21034;SDS011;10676;50.848;3.272;2023-04-03T05:35:08;38.30;;;26.90;;
21034;SDS011;10676;50.848;3.272;2023-04-03T05:37:34;38.60;;;26.37;;
21034;SDS011;10676;50.848;3.272;2023-04-03T05:40:00;41.17;;;28.03;;
21034;SDS011;10676;50.848;3.272;2023-04-03T05:42:26;41.37;;;29.37;;
21034;SDS011;10676;50.848;3.272;2023-04-03T05:44:51;47.80;;;27.90;;
21034;SDS011;10676;50.848;3.272;2023-04-03T05:47:18;38.90;;;29.80;;
21034;SDS011;10676;50.848;3.272;2023-04-03T05:49:43;41.50;;;28.90;;
21034;SDS011;10676;50.848;3.272;2023-04-03T05:52:29;37.50;;;27.93;;
21034;SDS011;10676;50.848;3.272;2023-04-03T05:54:56;39.67;;;27.80;;
21034;SDS011;10676;50.848;3.272;2023-04-03T05:57:22;37.23;;;27.73;;
21034;SDS011;10676;50.848;3.272;2023-04-03T05:59:48;44.40;;;29.10;;
21034;SDS011;10676;50.848;3.272;2023-04-03T06:02:21;43.10;;;26.83;;
21034;SDS011;10676;50.848;3.272;2023-04-03T06:04:49;39.93;;;27.83;;
21034;SDS011;10676;50.848;3.272;2023-04-03T06:07:16;35.57;;;26.53;;
21034;SDS011;10676;50.848;3.272;2023-04-03T06:09:44;34.67;;;28.67;;
21034;SDS011;10676;50.848;3.272;2023-04-03T06:12:10;35.17;;;26.40;;
21034;SDS011;10676;50.848;3.272;2023-04-03T06:14:36;37.10;;;26.00;;
21034;SDS011;10676;50.848;3.272;2023-04-03T06:17:02;32.55;;;24.05;;
21034;SDS011;10676;50.848;3.272;2023-04-03T06:19:29;31.70;;;21.70;;
21034;SDS011;10676;50.848;3.272;2023-04-03T06:21:55;28.52;;;20.65;;
21034;SDS011;10676;50.848;3.272;2023-04-03T06:24:21;23.40;;;19.05;;
21034;SDS011;10676;50.848;3.272;2023-04-03T06:26:49;22.98;;;18.77;;
21034;SDS011;10676;50.848;3.272;2023-04-03T06:29:16;24.10;;;18.40;;
21034;SDS011;10676;50.848;3.272;2023-04-03T06:31:42;25.15;;;17.92;;
21034;SDS011;10676;50.848;3.272;2023-04-03T06:34:08;22.85;;;16.88;;
21034;SDS011;10676;50.848;3.272;2023-04-03T06:36:36;20.92;;;16.75;;
21034;SDS011;10676;50.848;3.272;2023-04-03T06:39:02;21.67;;;17.35;;
21034;SDS011;10676;50.848;3.272;2023-04-03T06:41:28;19.63;;;17.58;;
21034;SDS011;10676;50.848;3.272;2023-04-03T06:43:54;21.42;;;19.25;;
21034;SDS011;10676;50.848;3.272;2023-04-03T06:46:21;16.88;;;15.18;;
21034;SDS011;10676;50.848;3.272;2023-04-03T06:48:48;21.02;;;16.40;;
21034;SDS011;10676;50.848;3.272;2023-04-03T06:51:24;21.38;;;17.90;;
21034;SDS011;10676;50.848;3.272;2023-04-03T06:53:52;19.98;;;15.38;;
21034;SDS011;10676;50.848;3.272;2023-04-03T06:56:19;19.60;;;15.10;;
21034;SDS011;10676;50.848;3.272;2023-04-03T06:58:45;17.27;;;15.57;;
21034;SDS011;10676;50.848;3.272;2023-04-03T07:01:12;29.17;;;26.88;;
21034;SDS011;10676;50.848;3.272;2023-04-03T07:03:39;1999.90;;;999.90;;
21034;SDS011;10676;50.848;3.272;2023-04-03T07:06:05;1999.90;;;999.90;;
21034;SDS011;10676;50.848;3.272;2023-04-03T07:08:33;1999.90;;;999.90;;
21034;SDS011;10676;50.848;3.272;2023-04-03T07:10:59;1999.90;;;999.90;;
21034;SDS011;10676;50.848;3.272;2023-04-03T07:13:25;1999.90;;;999.90;;
21034;SDS011;10676;50.848;3.272;2023-04-03T07:15:51;1999.90;;;999.90;;
21034;SDS011;10676;50.848;3.272;2023-04-03T07:18:17;1999.90;;;999.90;;
21034;SDS011;10676;50.848;3.272;2023-04-03T07:20:43;1999.90;;;999.90;;
21034;SDS011;10676;50.848;3.272;2023-04-03T07:23:09;1999.90;;;999.90;;
21034;SDS011;10676;50.848;3.272;2023-04-03T07:25:35;1999.90;;;999.90;;
21034;SDS011;10676;50.848;3.272;2023-04-03T07:28:02;1999.90;;;999.90;;
21034;SDS011;10676;50.848;3.272;2023-04-03T07:30:28;1999.90;;;999.90;;
21034;SDS011;10676;50.848;3.272;2023-04-03T07:32:54;1999.90;;;999.90;;
21034;SDS011;10676;50.848;3.272;2023-04-03T07:35:20;1999.90;;;999.90;;
21034;SDS011;10676;50.848;3.272;2023-04-03T07:37:46;1999.90;;;999.90;;
21034;SDS011;10676;50.848;3.272;2023-04-03T07:40:12;1999.90;;;999.90;;
21034;SDS011;10676;50.848;3.272;2023-04-03T07:42:37;1999.90;;;999.90;;
21034;SDS011;10676;50.848;3.272;2023-04-03T07:45:03;1999.90;;;999.90;;
21034;SDS011;10676;50.848;3.272;2023-04-03T07:47:29;1999.90;;;999.90;;
21034;SDS011;10676;50.848;3.272;2023-04-03T07:49:56;1999.90;;;999.90;;
21034;SDS011;10676;50.848;3.272;2023-04-03T07:52:22;1999.90;;;999.90;;
21034;SDS011;10676;50.848;3.272;2023-04-03T07:54:48;1999.90;;;999.90;;
21034;SDS011;10676;50.848;3.272;2023-04-03T07:57:13;1999.90;;;999.90;;
21034;SDS011;10676;50.848;3.272;2023-04-03T07:59:39;1999.90;;;999.90;;
21034;SDS011;10676;50.848;3.272;2023-04-03T08:02:08;1999.90;;;999.90;;
21034;SDS011;10676;50.848;3.272;2023-04-03T08:04:35;1999.90;;;999.90;;
21034;SDS011;10676;50.848;3.272;2023-04-03T08:07:01;1999.90;;;999.90;;
21034;SDS011;10676;50.848;3.272;2023-04-03T08:09:26;1999.90;;;999.90;;
21034;SDS011;10676;50.848;3.272;2023-04-03T08:11:52;1999.90;;;999.90;;
21034;SDS011;10676;50.848;3.272;2023-04-03T08:14:18;1999.90;;;999.90;;
21034;SDS011;10676;50.848;3.272;2023-04-03T08:16:46;1999.90;;;999.90;;
21034;SDS011;10676;50.848;3.272;2023-04-03T08:19:12;1999.90;;;999.90;;
21034;SDS011;10676;50.848;3.272;2023-04-03T08:21:40;1999.90;;;999.90;;
21034;SDS011;10676;50.848;3.272;2023-04-03T08:24:06;1999.90;;;999.90;;
21034;SDS011;10676;50.848;3.272;2023-04-03T08:26:33;1999.90;;;999.90;;
21034;SDS011;10676;50.848;3.272;2023-04-03T08:28:59;1999.90;;;999.90;;
21034;SDS011;10676;50.848;3.272;2023-04-03T08:31:24;1999.90;;;999.90;;
21034;SDS011;10676;50.848;3.272;2023-04-03T08:33:50;1999.90;;;999.90;;
21034;SDS011;10676;50.848;3.272;2023-04-03T08:36:20;1999.90;;;999.90;;
21034;SDS011;10676;50.848;3.272;2023-04-03T08:38:48;1999.90;;;999.90;;
21034;SDS011;10676;50.848;3.272;2023-04-03T08:44:14;1999.90;;;999.90;;
21034;SDS011;10676;50.848;3.272;2023-04-03T08:49:48;1999.90;;;999.90;;
21034;SDS011;10676;50.848;3.272;2023-04-03T08:52:19;1999.90;;;999.90;;
21034;SDS011;10676;50.848;3.272;2023-04-03T08:54:51;1999.90;;;999.90;;
21034;SDS011;10676;50.848;3.272;2023-04-03T08:57:24;1999.90;;;999.90;;
21034;SDS011;10676;50.848;3.272;2023-04-03T09:00:18;1999.90;;;999.90;;
21034;SDS011;10676;50.848;3.272;2023-04-03T09:02:46;1999.90;;;999.90;;
21034;SDS011;10676;50.848;3.272;2023-04-03T09:05:18;1999.90;;;999.90;;
21034;SDS011;10676;50.848;3.272;2023-04-03T09:08:36;1999.90;;;999.90;;
21034;SDS011;10676;50.848;3.272;2023-04-03T09:10:44;1999.90;;;999.90;;
21034;SDS011;10676;50.848;3.272;2023-04-03T09:13:20;1999.90;;;999.90;;
21034;SDS011;10676;50.848;3.272;2023-04-03T09:15:57;1999.90;;;999.90;;
21034;SDS011;10676;50.848;3.272;2023-04-03T09:18:25;1999.90;;;999.90;;
21034;SDS011;10676;50.848;3.272;2023-04-03T09:21:01;1999.90;;;999.90;;
21034;SDS011;10676;50.848;3.272;2023-04-03T09:26:02;1999.90;;;999.90;;
21034;SDS011;10676;50.848;3.272;2023-04-03T09:28:31;1999.90;;;999.90;;
21034;SDS011;10676;50.848;3.272;2023-04-03T09:31:00;1999.90;;;999.90;;
21034;SDS011;10676;50.848;3.272;2023-04-03T09:33:44;1999.90;;;999.90;;
21034;SDS011;10676;50.848;3.272;2023-04-03T09:36:11;1999.90;;;999.90;;
21034;SDS011;10676;50.848;3.272;2023-04-03T09:38:37;1999.90;;;999.90;;
21034;SDS011;10676;50.848;3.272;2023-04-03T09:41:14;1999.90;;;999.90;;
21034;SDS011;10676;50.848;3.272;2023-04-03T09:43:52;1999.90;;;999.90;;
21034;SDS011;10676;50.848;3.272;2023-04-03T09:49:01;1999.90;;;999.90;;
21034;SDS011;10676;50.848;3.272;2023-04-03T09:51:28;1999.90;;;999.90;;
21034;SDS011;10676;50.848;3.272;2023-04-03T09:53:55;1999.90;;;999.90;;
21034;SDS011;10676;50.848;3.272;2023-04-03T09:56:22;1999.90;;;999.90;;
21034;SDS011;10676;50.848;3.272;2023-04-03T10:01:27;1999.90;;;999.90;;
21034;SDS011;10676;50.848;3.272;2023-04-03T10:04:11;1999.90;;;999.90;;
21034;SDS011;10676;50.848;3.272;2023-04-03T10:06:45;1999.90;;;999.90;;
21034;SDS011;10676;50.848;3.272;2023-04-03T10:09:28;1999.90;;;999.90;;
21034;SDS011;10676;50.848;3.272;2023-04-03T10:12:00;1999.90;;;999.90;;
21034;SDS011;10676;50.848;3.272;2023-04-03T10:14:32;1999.90;;;999.90;;
21034;SDS011;10676;50.848;3.272;2023-04-03T10:17:11;1999.90;;;999.90;;
21034;SDS011;10676;50.848;3.272;2023-04-03T10:30:28;1999.90;;;999.90;;
21034;SDS011;10676;50.848;3.272;2023-04-03T10:36:07;1999.90;;;999.90;;
21034;SDS011;10676;50.848;3.272;2023-04-03T10:47:22;1999.90;;;999.90;;
21034;SDS011;10676;50.848;3.272;2023-04-03T10:52:43;1999.90;;;999.90;;
21034;SDS011;10676;50.848;3.272;2023-04-03T10:55:40;1999.90;;;999.90;;
21034;SDS011;10676;50.848;3.272;2023-04-03T10:58:18;1999.90;;;999.90;;
21034;SDS011;10676;50.848;3.272;2023-04-03T11:00:51;1999.90;;;999.90;;
21034;SDS011;10676;50.848;3.272;2023-04-03T11:05:49;1999.90;;;999.90;;
21034;SDS011;10676;50.848;3.272;2023-04-03T11:08:23;1999.90;;;999.90;;
21034;SDS011;10676;50.848;3.272;2023-04-03T11:10:51;1999.90;;;999.90;;
21034;SDS011;10676;50.848;3.272;2023-04-03T11:13:27;1999.90;;;999.90;;
21034;SDS011;10676;50.848;3.272;2023-04-03T11:16:13;1999.90;;;999.90;;
21034;SDS011;10676;50.848;3.272;2023-04-03T11:18:52;1999.90;;;999.90;;
21034;SDS011;10676;50.848;3.272;2023-04-03T11:21:44;1999.90;;;999.90;;
21034;SDS011;10676;50.848;3.272;2023-04-03T11:24:22;1999.90;;;999.90;;
21034;SDS011;10676;50.848;3.272;2023-04-03T11:26:51;1999.90;;;999.90;;
21034;SDS011;10676;50.848;3.272;2023-04-03T11:29:21;1999.90;;;999.90;;
21034;SDS011;10676;50.848;3.272;2023-04-03T11:34:42;1999.90;;;999.90;;
21034;SDS011;10676;50.848;3.272;2023-04-03T11:37:16;1999.90;;;999.90;;
21034;SDS011;10676;50.848;3.272;2023-04-03T11:39:54;1999.90;;;999.90;;
21034;SDS011;10676;50.848;3.272;2023-04-03T11:47:44;1999.90;;;999.90;;
21034;SDS011;10676;50.848;3.272;2023-04-03T11:53:25;1999.90;;;999.90;;
21034;SDS011;10676;50.848;3.272;2023-04-03T11:55:56;1999.90;;;999.90;;
21034;SDS011;10676;50.848;3.272;2023-04-03T12:16:06;1999.90;;;999.90;;
21034;SDS011;10676;50.848;3.272;2023-04-03T12:39:52;1999.90;;;999.90;;
21034;SDS011;10676;50.848;3.272;2023-04-03T12:45:20;1999.90;;;999.90;;
21034;SDS011;10676;50.848;3.272;2023-04-03T12:47:48;1999.90;;;999.90;;
21034;SDS011;10676;50.848;3.272;2023-04-03T12:50:17;1999.90;;;999.90;;
21034;SDS011;10676;50.848;3.272;2023-04-03T12:52:45;1999.90;;;999.90;;
21034;SDS011;10676;50.848;3.272;2023-04-03T12:55:17;1999.90;;;999.90;;
21034;SDS011;10676;50.848;3.272;2023-04-03T12:57:45;1999.90;;;999.90;;
21034;SDS011;10676;50.848;3.272;2023-04-03T13:02:52;1999.90;;;999.90;;
21034;SDS011;10676;50.848;3.272;2023-04-03T13:05:18;1999.90;;;999.90;;
21034;SDS011;10676;50.848;3.272;2023-04-03T13:07:49;1999.90;;;999.90;;
21034;SDS011;10676;50.848;3.272;2023-04-03T13:10:28;1999.90;;;999.90;;
21034;SDS011;10676;50.848;3.272;2023-04-03T13:12:58;1999.90;;;999.90;;
21034;SDS011;10676;50.848;3.272;2023-04-03T13:15:43;1999.90;;;999.90;;
21034;SDS011;10676;50.848;3.272;2023-04-03T13:23:42;1999.90;;;999.90;;
21034;SDS011;10676;50.848;3.272;2023-04-03T13:26:11;1999.90;;;999.90;;
21034;SDS011;10676;50.848;3.272;2023-04-03T13:28:41;1999.90;;;999.90;;
21034;SDS011;10676;50.848;3.272;2023-04-03T13:34:02;1999.90;;;999.90;;
21034;SDS011;10676;50.848;3.272;2023-04-03T13:41:44;1999.90;;;999.90;;
21034;SDS011;10676;50.848;3.272;2023-04-03T13:46:47;1999.90;;;999.90;;
21034;SDS011;10676;50.848;3.272;2023-04-03T13:51:51;1999.90;;;999.90;;
21034;SDS011;10676;50.848;3.272;2023-04-03T13:54:34;1999.90;;;999.90;;
21034;SDS011;10676;50.848;3.272;2023-04-03T13:57:02;1999.90;;;999.90;;
21034;SDS011;10676;50.848;3.272;2023-04-03T13:59:36;1999.90;;;999.90;;
21034;SDS011;10676;50.848;3.272;2023-04-03T14:04:30;1999.90;;;999.90;;
21034;SDS011;10676;50.848;3.272;2023-04-03T14:06:58;1999.90;;;999.90;;
21034;SDS011;10676;50.848;3.272;2023-04-03T14:09:25;1999.90;;;999.90;;
21034;SDS011;10676;50.848;3.272;2023-04-03T14:11:53;1999.90;;;999.90;;
21034;SDS011;10676;50.848;3.272;2023-04-03T14:14:23;1999.90;;;999.90;;
21034;SDS011;10676;50.848;3.272;2023-04-03T14:16:54;1999.90;;;999.90;;
21034;SDS011;10676;50.848;3.272;2023-04-03T14:19:32;1999.90;;;999.90;;
21034;SDS011;10676;50.848;3.272;2023-04-03T14:22:00;1999.90;;;999.90;;
21034;SDS011;10676;50.848;3.272;2023-04-03T14:24:31;1999.90;;;999.90;;
21034;SDS011;10676;50.848;3.272;2023-04-03T14:27:00;1999.90;;;999.90;;
21034;SDS011;10676;50.848;3.272;2023-04-03T14:29:36;1999.90;;;999.90;;
21034;SDS011;10676;50.848;3.272;2023-04-03T14:32:02;1999.90;;;999.90;;
21034;SDS011;10676;50.848;3.272;2023-04-03T14:34:28;1999.90;;;999.90;;
21034;SDS011;10676;50.848;3.272;2023-04-03T14:36:53;1999.90;;;999.90;;
21034;SDS011;10676;50.848;3.272;2023-04-03T14:39:19;1999.90;;;999.90;;
21034;SDS011;10676;50.848;3.272;2023-04-03T14:41:45;1999.90;;;999.90;;
21034;SDS011;10676;50.848;3.272;2023-04-03T14:44:12;1999.90;;;999.90;;
21034;SDS011;10676;50.848;3.272;2023-04-03T14:46:38;1999.90;;;999.90;;
21034;SDS011;10676;50.848;3.272;2023-04-03T14:49:12;1999.90;;;999.90;;
21034;SDS011;10676;50.848;3.272;2023-04-03T14:51:50;1999.90;;;999.90;;
21034;SDS011;10676;50.848;3.272;2023-04-03T14:54:17;1999.90;;;999.90;;
21034;SDS011;10676;50.848;3.272;2023-04-03T14:56:50;1999.90;;;999.90;;
21034;SDS011;10676;50.848;3.272;2023-04-03T14:59:16;1999.90;;;999.90;;
21034;SDS011;10676;50.848;3.272;2023-04-03T15:01:45;1999.90;;;999.90;;
21034;SDS011;10676;50.848;3.272;2023-04-03T15:04:14;1999.90;;;999.90;;
21034;SDS011;10676;50.848;3.272;2023-04-03T15:06:43;1999.90;;;999.90;;
21034;SDS011;10676;50.848;3.272;2023-04-03T15:09:22;1999.90;;;999.90;;
21034;SDS011;10676;50.848;3.272;2023-04-03T15:11:50;1999.90;;;999.90;;
21034;SDS011;10676;50.848;3.272;2023-04-03T15:14:17;1999.90;;;999.90;;
21034;SDS011;10676;50.848;3.272;2023-04-03T15:16:43;1999.90;;;999.90;;
21034;SDS011;10676;50.848;3.272;2023-04-03T15:19:09;1999.90;;;999.90;;
21034;SDS011;10676;50.848;3.272;2023-04-03T15:21:35;1999.90;;;999.90;;
21034;SDS011;10676;50.848;3.272;2023-04-03T15:24:01;1999.90;;;999.90;;
21034;SDS011;10676;50.848;3.272;2023-04-03T15:26:26;1999.90;;;999.90;;
21034;SDS011;10676;50.848;3.272;2023-04-03T15:28:52;1999.90;;;999.90;;
21034;SDS011;10676;50.848;3.272;2023-04-03T15:31:18;1999.90;;;999.90;;
21034;SDS011;10676;50.848;3.272;2023-04-03T15:33:43;1999.90;;;999.90;;
21034;SDS011;10676;50.848;3.272;2023-04-03T15:36:09;1999.90;;;999.90;;
21034;SDS011;10676;50.848;3.272;2023-04-03T15:38:35;1999.90;;;999.90;;
21034;SDS011;10676;50.848;3.272;2023-04-03T15:41:03;1999.90;;;999.90;;
21034;SDS011;10676;50.848;3.272;2023-04-03T15:43:29;1999.90;;;999.90;;
21034;SDS011;10676;50.848;3.272;2023-04-03T15:45:58;1999.90;;;999.90;;
21034;SDS011;10676;50.848;3.272;2023-04-03T15:48:25;1999.90;;;999.90;;
21034;SDS011;10676;50.848;3.272;2023-04-03T15:50:51;1999.90;;;999.90;;
21034;SDS011;10676;50.848;3.272;2023-04-03T15:53:17;1999.90;;;999.90;;
21034;SDS011;10676;50.848;3.272;2023-04-03T15:55:43;1999.90;;;999.90;;
21034;SDS011;10676;50.848;3.272;2023-04-03T15:58:09;1999.90;;;999.90;;
21034;SDS011;10676;50.848;3.272;2023-04-03T16:00:38;1999.90;;;999.90;;
21034;SDS011;10676;50.848;3.272;2023-04-03T16:03:09;1999.90;;;999.90;;
21034;SDS011;10676;50.848;3.272;2023-04-03T16:05:37;1999.90;;;999.90;;
21034;SDS011;10676;50.848;3.272;2023-04-03T16:08:04;1999.90;;;999.90;;
21034;SDS011;10676;50.848;3.272;2023-04-03T16:10:32;1999.90;;;999.90;;